sensor_id;sensor_type;location;lat;lon;timestamp;P1;durP1;ratioP1;P2;durP2;ratioP2
7541;SDS011;3812;50.006;8.230;2023-01-29T00:01:33;5.60;;;4.50;;
7541;SDS011;3812;50.006;8.230;2023-01-29T00:04:00;5.57;;;4.90;;
7541;SDS011;3812;50.006;8.230;2023-01-29T00:06:27;6.87;;;5.00;;
7541;SDS011;3812;50.006;8.230;2023-01-29T00:08:55;5.50;;;4.60;;
7541;SDS011;3812;50.006;8.230;2023-01-29T00:11:22;5.40;;;4.53;;
7541;SDS011;3812;50.006;8.230;2023-01-29T00:13:50;5.30;;;4.80;;
7541;SDS011;3812;50.006;8.230;2023-01-29T00:16:19;5.07;;;4.67;;
7541;SDS011;3812;50.006;8.230;2023-01-29T00:18:46;4.50;;;4.10;;
7541;SDS011;3812;50.006;8.230;2023-01-29T00:21:14;7.00;;;5.23;;
7541;SDS011;3812;50.006;8.230;2023-01-29T00:23:42;5.90;;;5.30;;
7541;SDS011;3812;50.006;8.230;2023-01-29T00:26:09;5.53;;;5.03;;
7541;SDS011;3812;50.006;8.230;2023-01-29T00:28:41;5.67;;;5.13;;
7541;SDS011;3812;50.006;8.230;2023-01-29T00:31:09;6.83;;;5.10;;
7541;SDS011;3812;50.006;8.230;2023-01-29T00:33:38;5.70;;;5.10;;
7541;SDS011;3812;50.006;8.230;2023-01-29T00:36:07;5.80;;;4.70;;
7541;SDS011;3812;50.006;8.230;2023-01-29T00:38:35;5.57;;;5.03;;
7541;SDS011;3812;50.006;8.230;2023-01-29T00:41:06;8.47;;;5.47;;
7541;SDS011;3812;50.006;8.230;2023-01-29T00:43:51;5.80;;;5.20;;
7541;SDS011;3812;50.006;8.230;2023-01-29T00:46:36;6.87;;;5.53;;
7541;SDS011;3812;50.006;8.230;2023-01-29T00:49:04;6.07;;;5.17;;
7541;SDS011;3812;50.006;8.230;2023-01-29T00:51:32;7.73;;;5.70;;
7541;SDS011;3812;50.006;8.230;2023-01-29T00:53:59;7.53;;;5.27;;
7541;SDS011;3812;50.006;8.230;2023-01-29T00:56:31;5.80;;;5.20;;
7541;SDS011;3812;50.006;8.230;2023-01-29T00:58:59;6.00;;;5.33;;
7541;SDS011;3812;50.006;8.230;2023-01-29T01:01:26;5.87;;;5.37;;
7541;SDS011;3812;50.006;8.230;2023-01-29T01:04:12;6.13;;;5.27;;
7541;SDS011;3812;50.006;8.230;2023-01-29T01:06:40;5.90;;;5.07;;
7541;SDS011;3812;50.006;8.230;2023-01-29T01:09:08;5.83;;;5.20;;
7541;SDS011;3812;50.006;8.230;2023-01-29T01:11:54;6.17;;;5.57;;
7541;SDS011;3812;50.006;8.230;2023-01-29T01:14:21;5.47;;;4.97;;
7541;SDS011;3812;50.006;8.230;2023-01-29T01:16:48;6.10;;;5.50;;
7541;SDS011;3812;50.006;8.230;2023-01-29T01:19:17;6.43;;;5.07;;
7541;SDS011;3812;50.006;8.230;2023-01-29T01:21:44;6.20;;;5.50;;
7541;SDS011;3812;50.006;8.230;2023-01-29T01:24:12;6.77;;;6.07;;
7541;SDS011;3812;50.006;8.230;2023-01-29T01:26:39;6.30;;;5.70;;
7541;SDS011;3812;50.006;8.230;2023-01-29T01:29:07;8.83;;;6.20;;
7541;SDS011;3812;50.006;8.230;2023-01-29T01:31:34;6.67;;;6.00;;
7541;SDS011;3812;50.006;8.230;2023-01-29T01:34:01;7.13;;;5.93;;
7541;SDS011;3812;50.006;8.230;2023-01-29T01:36:30;8.47;;;6.50;;
7541;SDS011;3812;50.006;8.230;2023-01-29T01:38:57;6.13;;;5.53;;
7541;SDS011;3812;50.006;8.230;2023-01-29T01:41:25;6.73;;;6.13;;
7541;SDS011;3812;50.006;8.230;2023-01-29T01:43:52;7.60;;;5.77;;
7541;SDS011;3812;50.006;8.230;2023-01-29T01:46:21;7.33;;;6.33;;
7541;SDS011;3812;50.006;8.230;2023-01-29T01:48:50;9.23;;;6.93;;
7541;SDS011;3812;50.006;8.230;2023-01-29T01:51:18;7.57;;;6.57;;
7541;SDS011;3812;50.006;8.230;2023-01-29T01:53:51;7.97;;;7.10;;
7541;SDS011;3812;50.006;8.230;2023-01-29T01:56:21;8.53;;;7.00;;
7541;SDS011;3812;50.006;8.230;2023-01-29T01:58:50;7.00;;;6.30;;
7541;SDS011;3812;50.006;8.230;2023-01-29T02:01:17;8.23;;;6.77;;
7541;SDS011;3812;50.006;8.230;2023-01-29T02:03:52;8.27;;;6.77;;
7541;SDS011;3812;50.006;8.230;2023-01-29T02:06:39;8.17;;;6.70;;
7541;SDS011;3812;50.006;8.230;2023-01-29T02:09:26;10.83;;;6.73;;
7541;SDS011;3812;50.006;8.230;2023-01-29T02:11:59;10.57;;;7.77;;
7541;SDS011;3812;50.006;8.230;2023-01-29T02:14:27;8.73;;;7.20;;
7541;SDS011;3812;50.006;8.230;2023-01-29T02:16:56;7.90;;;6.83;;
7541;SDS011;3812;50.006;8.230;2023-01-29T02:19:26;8.40;;;6.73;;
7541;SDS011;3812;50.006;8.230;2023-01-29T02:27:39;10.17;;;7.57;;
7541;SDS011;3812;50.006;8.230;2023-01-29T02:30:11;10.37;;;7.47;;
7541;SDS011;3812;50.006;8.230;2023-01-29T02:32:44;8.67;;;6.97;;
7541;SDS011;3812;50.006;8.230;2023-01-29T02:35:21;7.53;;;6.73;;
7541;SDS011;3812;50.006;8.230;2023-01-29T02:37:54;9.67;;;7.57;;
7541;SDS011;3812;50.006;8.230;2023-01-29T02:40:24;9.90;;;7.50;;
7541;SDS011;3812;50.006;8.230;2023-01-29T02:42:55;7.87;;;6.90;;
7541;SDS011;3812;50.006;8.230;2023-01-29T02:45:26;9.53;;;7.17;;
7541;SDS011;3812;50.006;8.230;2023-01-29T02:47:58;9.03;;;7.23;;
7541;SDS011;3812;50.006;8.230;2023-01-29T02:50:27;9.60;;;7.27;;
7541;SDS011;3812;50.006;8.230;2023-01-29T02:53:00;8.73;;;7.37;;
7541;SDS011;3812;50.006;8.230;2023-01-29T02:55:29;9.90;;;7.60;;
7541;SDS011;3812;50.006;8.230;2023-01-29T02:58:00;10.10;;;7.60;;
7541;SDS011;3812;50.006;8.230;2023-01-29T03:00:31;9.93;;;7.70;;
7541;SDS011;3812;50.006;8.230;2023-01-29T03:03:01;8.37;;;7.23;;
7541;SDS011;3812;50.006;8.230;2023-01-29T03:05:30;9.93;;;7.30;;
7541;SDS011;3812;50.006;8.230;2023-01-29T03:08:00;9.13;;;7.80;;
7541;SDS011;3812;50.006;8.230;2023-01-29T03:10:34;9.20;;;6.83;;
7541;SDS011;3812;50.006;8.230;2023-01-29T03:13:03;9.27;;;6.90;;
7541;SDS011;3812;50.006;8.230;2023-01-29T03:15:35;9.47;;;6.93;;
7541;SDS011;3812;50.006;8.230;2023-01-29T03:18:31;7.90;;;6.70;;
7541;SDS011;3812;50.006;8.230;2023-01-29T03:21:01;11.13;;;7.67;;
7541;SDS011;3812;50.006;8.230;2023-01-29T03:23:49;8.97;;;6.97;;
7541;SDS011;3812;50.006;8.230;2023-01-29T03:26:35;8.47;;;7.23;;
7541;SDS011;3812;50.006;8.230;2023-01-29T03:29:20;9.33;;;7.50;;
7541;SDS011;3812;50.006;8.230;2023-01-29T03:32:06;9.50;;;7.13;;
7541;SDS011;3812;50.006;8.230;2023-01-29T03:34:37;9.80;;;7.67;;
7541;SDS011;3812;50.006;8.230;2023-01-29T03:37:10;8.77;;;7.20;;
7541;SDS011;3812;50.006;8.230;2023-01-29T03:39:39;9.47;;;7.03;;
7541;SDS011;3812;50.006;8.230;2023-01-29T03:42:09;8.73;;;7.03;;
7541;SDS011;3812;50.006;8.230;2023-01-29T03:44:41;7.90;;;7.10;;
7541;SDS011;3812;50.006;8.230;2023-01-29T03:47:21;10.03;;;7.23;;
7541;SDS011;3812;50.006;8.230;2023-01-29T03:49:53;9.07;;;7.47;;
7541;SDS011;3812;50.006;8.230;2023-01-29T03:52:23;8.47;;;7.33;;
7541;SDS011;3812;50.006;8.230;2023-01-29T03:54:55;9.27;;;6.90;;
7541;SDS011;3812;50.006;8.230;2023-01-29T03:57:28;9.77;;;7.07;;
7541;SDS011;3812;50.006;8.230;2023-01-29T03:59:59;10.57;;;7.57;;
7541;SDS011;3812;50.006;8.230;2023-01-29T04:02:50;9.43;;;7.33;;
7541;SDS011;3812;50.006;8.230;2023-01-29T04:05:20;9.17;;;7.57;;
7541;SDS011;3812;50.006;8.230;2023-01-29T04:08:04;12.67;;;7.77;;
7541;SDS011;3812;50.006;8.230;2023-01-29T04:10:32;10.67;;;7.33;;
7541;SDS011;3812;50.006;8.230;2023-01-29T04:13:01;11.67;;;7.67;;
7541;SDS011;3812;50.006;8.230;2023-01-29T04:15:31;9.33;;;7.67;;
7541;SDS011;3812;50.006;8.230;2023-01-29T04:18:00;8.00;;;7.00;;
7541;SDS011;3812;50.006;8.230;2023-01-29T04:20:37;9.07;;;7.33;;
7541;SDS011;3812;50.006;8.230;2023-01-29T04:23:05;11.70;;;7.80;;
7541;SDS011;3812;50.006;8.230;2023-01-29T04:25:34;9.70;;;7.77;;
7541;SDS011;3812;50.006;8.230;2023-01-29T04:28:03;10.67;;;7.80;;
7541;SDS011;3812;50.006;8.230;2023-01-29T04:30:37;13.07;;;8.57;;
7541;SDS011;3812;50.006;8.230;2023-01-29T04:33:10;14.40;;;10.03;;
7541;SDS011;3812;50.006;8.230;2023-01-29T04:35:43;13.33;;;8.80;;
7541;SDS011;3812;50.006;8.230;2023-01-29T04:38:15;12.23;;;8.13;;
7541;SDS011;3812;50.006;8.230;2023-01-29T04:40:48;12.93;;;9.13;;
7541;SDS011;3812;50.006;8.230;2023-01-29T04:43:19;11.40;;;8.77;;
7541;SDS011;3812;50.006;8.230;2023-01-29T04:45:49;11.60;;;8.63;;
7541;SDS011;3812;50.006;8.230;2023-01-29T04:48:23;9.57;;;7.90;;
7541;SDS011;3812;50.006;8.230;2023-01-29T04:50:53;11.90;;;8.40;;
7541;SDS011;3812;50.006;8.230;2023-01-29T04:53:22;12.03;;;8.10;;
7541;SDS011;3812;50.006;8.230;2023-01-29T04:55:52;10.67;;;8.00;;
7541;SDS011;3812;50.006;8.230;2023-01-29T04:58:24;10.73;;;7.93;;
7541;SDS011;3812;50.006;8.230;2023-01-29T05:00:52;9.80;;;7.57;;
7541;SDS011;3812;50.006;8.230;2023-01-29T05:03:22;10.40;;;7.33;;
7541;SDS011;3812;50.006;8.230;2023-01-29T05:05:50;7.87;;;7.03;;
7541;SDS011;3812;50.006;8.230;2023-01-29T05:08:19;8.80;;;7.60;;
7541;SDS011;3812;50.006;8.230;2023-01-29T05:10:47;9.70;;;7.90;;
7541;SDS011;3812;50.006;8.230;2023-01-29T05:13:15;9.07;;;7.20;;
7541;SDS011;3812;50.006;8.230;2023-01-29T05:15:45;9.43;;;7.43;;
7541;SDS011;3812;50.006;8.230;2023-01-29T05:18:14;10.03;;;7.07;;
7541;SDS011;3812;50.006;8.230;2023-01-29T05:20:42;8.90;;;7.23;;
7541;SDS011;3812;50.006;8.230;2023-01-29T05:23:14;8.70;;;7.10;;
7541;SDS011;3812;50.006;8.230;2023-01-29T05:25:41;8.33;;;7.10;;
7541;SDS011;3812;50.006;8.230;2023-01-29T05:28:08;9.70;;;6.97;;
7541;SDS011;3812;50.006;8.230;2023-01-29T05:30:40;8.70;;;6.60;;
7541;SDS011;3812;50.006;8.230;2023-01-29T05:33:10;8.97;;;7.07;;
7541;SDS011;3812;50.006;8.230;2023-01-29T05:35:38;9.43;;;7.23;;
7541;SDS011;3812;50.006;8.230;2023-01-29T05:38:06;10.63;;;6.70;;
7541;SDS011;3812;50.006;8.230;2023-01-29T05:40:34;9.73;;;6.87;;
7541;SDS011;3812;50.006;8.230;2023-01-29T05:43:01;11.57;;;7.40;;
7541;SDS011;3812;50.006;8.230;2023-01-29T05:45:29;8.07;;;6.60;;
7541;SDS011;3812;50.006;8.230;2023-01-29T05:47:56;8.97;;;6.90;;
7541;SDS011;3812;50.006;8.230;2023-01-29T05:50:24;7.57;;;6.33;;
7541;SDS011;3812;50.006;8.230;2023-01-29T05:52:54;8.03;;;6.70;;
7541;SDS011;3812;50.006;8.230;2023-01-29T05:55:23;9.90;;;7.90;;
7541;SDS011;3812;50.006;8.230;2023-01-29T05:57:50;9.77;;;7.77;;
7541;SDS011;3812;50.006;8.230;2023-01-29T06:00:18;9.60;;;6.93;;
7541;SDS011;3812;50.006;8.230;2023-01-29T06:02:45;9.27;;;7.13;;
7541;SDS011;3812;50.006;8.230;2023-01-29T06:05:12;9.33;;;6.93;;
7541;SDS011;3812;50.006;8.230;2023-01-29T06:07:39;8.47;;;7.13;;
7541;SDS011;3812;50.006;8.230;2023-01-29T06:10:10;8.43;;;6.70;;
7541;SDS011;3812;50.006;8.230;2023-01-29T06:12:39;8.73;;;7.27;;
7541;SDS011;3812;50.006;8.230;2023-01-29T06:15:06;10.17;;;7.20;;
7541;SDS011;3812;50.006;8.230;2023-01-29T06:17:34;8.37;;;6.83;;
7541;SDS011;3812;50.006;8.230;2023-01-29T06:20:01;7.33;;;6.20;;
7541;SDS011;3812;50.006;8.230;2023-01-29T06:22:29;9.73;;;6.70;;
7541;SDS011;3812;50.006;8.230;2023-01-29T06:24:56;8.07;;;6.70;;
7541;SDS011;3812;50.006;8.230;2023-01-29T06:27:23;8.87;;;6.73;;
7541;SDS011;3812;50.006;8.230;2023-01-29T06:29:52;8.70;;;6.97;;
7541;SDS011;3812;50.006;8.230;2023-01-29T06:32:19;9.37;;;6.60;;
7541;SDS011;3812;50.006;8.230;2023-01-29T06:34:46;10.00;;;7.63;;
7541;SDS011;3812;50.006;8.230;2023-01-29T06:37:13;11.17;;;7.77;;
7541;SDS011;3812;50.006;8.230;2023-01-29T06:39:40;9.80;;;7.23;;
7541;SDS011;3812;50.006;8.230;2023-01-29T06:42:08;7.47;;;6.00;;
7541;SDS011;3812;50.006;8.230;2023-01-29T06:44:35;7.73;;;6.17;;
7541;SDS011;3812;50.006;8.230;2023-01-29T06:47:04;8.77;;;6.63;;
7541;SDS011;3812;50.006;8.230;2023-01-29T06:49:31;8.80;;;7.67;;
7541;SDS011;3812;50.006;8.230;2023-01-29T06:51:58;8.57;;;6.30;;
7541;SDS011;3812;50.006;8.230;2023-01-29T06:54:26;8.27;;;6.70;;
7541;SDS011;3812;50.006;8.230;2023-01-29T06:56:53;10.10;;;7.53;;
7541;SDS011;3812;50.006;8.230;2023-01-29T06:59:21;7.93;;;7.00;;
7541;SDS011;3812;50.006;8.230;2023-01-29T07:01:48;10.83;;;7.50;;
7541;SDS011;3812;50.006;8.230;2023-01-29T07:04:16;10.83;;;8.33;;
7541;SDS011;3812;50.006;8.230;2023-01-29T07:06:44;10.77;;;8.17;;
7541;SDS011;3812;50.006;8.230;2023-01-29T07:09:11;9.60;;;7.33;;
7541;SDS011;3812;50.006;8.230;2023-01-29T07:11:39;10.90;;;8.30;;
7541;SDS011;3812;50.006;8.230;2023-01-29T07:14:06;9.00;;;6.77;;
7541;SDS011;3812;50.006;8.230;2023-01-29T07:16:33;8.33;;;7.10;;
7541;SDS011;3812;50.006;8.230;2023-01-29T07:19:01;8.80;;;7.23;;
7541;SDS011;3812;50.006;8.230;2023-01-29T07:21:29;9.40;;;7.43;;
7541;SDS011;3812;50.006;8.230;2023-01-29T07:23:56;8.97;;;7.57;;
7541;SDS011;3812;50.006;8.230;2023-01-29T07:26:24;11.13;;;7.60;;
7541;SDS011;3812;50.006;8.230;2023-01-29T07:28:51;14.10;;;9.13;;
7541;SDS011;3812;50.006;8.230;2023-01-29T07:31:18;11.47;;;8.70;;
7541;SDS011;3812;50.006;8.230;2023-01-29T07:33:47;10.67;;;7.63;;
7541;SDS011;3812;50.006;8.230;2023-01-29T07:36:14;9.07;;;7.43;;
7541;SDS011;3812;50.006;8.230;2023-01-29T07:38:42;9.40;;;7.70;;
7541;SDS011;3812;50.006;8.230;2023-01-29T07:41:10;10.20;;;7.50;;
7541;SDS011;3812;50.006;8.230;2023-01-29T07:43:37;10.97;;;8.03;;
7541;SDS011;3812;50.006;8.230;2023-01-29T07:46:05;8.90;;;7.40;;
7541;SDS011;3812;50.006;8.230;2023-01-29T07:48:32;10.37;;;7.17;;
7541;SDS011;3812;50.006;8.230;2023-01-29T07:50:59;8.63;;;7.10;;
7541;SDS011;3812;50.006;8.230;2023-01-29T07:53:26;11.20;;;8.77;;
7541;SDS011;3812;50.006;8.230;2023-01-29T07:55:55;10.23;;;7.77;;
7541;SDS011;3812;50.006;8.230;2023-01-29T07:58:22;10.00;;;7.90;;
7541;SDS011;3812;50.006;8.230;2023-01-29T08:00:50;10.43;;;7.47;;
7541;SDS011;3812;50.006;8.230;2023-01-29T08:03:17;9.33;;;7.53;;
7541;SDS011;3812;50.006;8.230;2023-01-29T08:05:45;11.27;;;7.97;;
7541;SDS011;3812;50.006;8.230;2023-01-29T08:08:12;11.93;;;7.83;;
7541;SDS011;3812;50.006;8.230;2023-01-29T08:10:40;12.13;;;8.40;;
7541;SDS011;3812;50.006;8.230;2023-01-29T08:13:09;10.40;;;8.40;;
7541;SDS011;3812;50.006;8.230;2023-01-29T08:15:36;11.03;;;7.50;;
7541;SDS011;3812;50.006;8.230;2023-01-29T08:18:04;9.30;;;7.20;;
7541;SDS011;3812;50.006;8.230;2023-01-29T08:20:31;8.20;;;7.40;;
7541;SDS011;3812;50.006;8.230;2023-01-29T08:22:58;9.10;;;6.87;;
7541;SDS011;3812;50.006;8.230;2023-01-29T08:25:26;8.23;;;7.13;;
7541;SDS011;3812;50.006;8.230;2023-01-29T08:27:54;9.27;;;6.87;;
7541;SDS011;3812;50.006;8.230;2023-01-29T08:30:23;9.83;;;7.27;;
7541;SDS011;3812;50.006;8.230;2023-01-29T08:32:50;7.97;;;6.83;;
7541;SDS011;3812;50.006;8.230;2023-01-29T08:35:17;8.50;;;7.20;;
7541;SDS011;3812;50.006;8.230;2023-01-29T08:37:51;8.53;;;6.93;;
7541;SDS011;3812;50.006;8.230;2023-01-29T08:40:18;7.80;;;6.60;;
7541;SDS011;3812;50.006;8.230;2023-01-29T08:42:46;8.77;;;6.63;;
7541;SDS011;3812;50.006;8.230;2023-01-29T08:45:13;9.33;;;7.17;;
7541;SDS011;3812;50.006;8.230;2023-01-29T08:47:45;7.70;;;6.63;;
7541;SDS011;3812;50.006;8.230;2023-01-29T08:50:12;7.83;;;6.13;;
7541;SDS011;3812;50.006;8.230;2023-01-29T08:52:39;8.47;;;6.90;;
7541;SDS011;3812;50.006;8.230;2023-01-29T08:55:07;7.60;;;6.33;;
7541;SDS011;3812;50.006;8.230;2023-01-29T08:57:34;8.93;;;6.50;;
7541;SDS011;3812;50.006;8.230;2023-01-29T09:00:02;7.23;;;6.40;;
7541;SDS011;3812;50.006;8.230;2023-01-29T09:02:29;8.40;;;6.70;;
7541;SDS011;3812;50.006;8.230;2023-01-29T09:04:58;11.93;;;8.10;;
7541;SDS011;3812;50.006;8.230;2023-01-29T09:07:25;9.80;;;8.00;;
7541;SDS011;3812;50.006;8.230;2023-01-29T09:09:52;10.50;;;7.47;;
7541;SDS011;3812;50.006;8.230;2023-01-29T09:12:20;9.10;;;7.30;;
7541;SDS011;3812;50.006;8.230;2023-01-29T09:14:47;8.60;;;7.00;;
7541;SDS011;3812;50.006;8.230;2023-01-29T09:17:15;11.60;;;7.70;;
7541;SDS011;3812;50.006;8.230;2023-01-29T09:19:42;11.10;;;8.07;;
7541;SDS011;3812;50.006;8.230;2023-01-29T09:22:10;8.37;;;7.37;;
7541;SDS011;3812;50.006;8.230;2023-01-29T09:24:38;11.37;;;7.27;;
7541;SDS011;3812;50.006;8.230;2023-01-29T09:27:05;8.60;;;7.23;;
7541;SDS011;3812;50.006;8.230;2023-01-29T09:29:34;8.50;;;6.70;;
7541;SDS011;3812;50.006;8.230;2023-01-29T09:32:02;7.47;;;6.50;;
7541;SDS011;3812;50.006;8.230;2023-01-29T09:34:29;9.20;;;6.77;;
7541;SDS011;3812;50.006;8.230;2023-01-29T09:36:56;10.03;;;7.90;;
7541;SDS011;3812;50.006;8.230;2023-01-29T09:39:25;11.43;;;8.80;;
7541;SDS011;3812;50.006;8.230;2023-01-29T09:41:54;12.77;;;8.73;;
7541;SDS011;3812;50.006;8.230;2023-01-29T09:44:23;12.50;;;8.70;;
7541;SDS011;3812;50.006;8.230;2023-01-29T09:46:54;11.10;;;8.60;;
7541;SDS011;3812;50.006;8.230;2023-01-29T09:49:25;9.63;;;7.53;;
7541;SDS011;3812;50.006;8.230;2023-01-29T09:51:55;8.87;;;7.50;;
7541;SDS011;3812;50.006;8.230;2023-01-29T09:54:26;8.43;;;7.33;;
7541;SDS011;3812;50.006;8.230;2023-01-29T09:56:54;11.23;;;7.87;;
7541;SDS011;3812;50.006;8.230;2023-01-29T09:59:23;11.40;;;8.30;;
7541;SDS011;3812;50.006;8.230;2023-01-29T10:01:53;7.83;;;6.90;;
7541;SDS011;3812;50.006;8.230;2023-01-29T10:04:27;8.27;;;6.77;;
7541;SDS011;3812;50.006;8.230;2023-01-29T10:07:02;8.97;;;7.93;;
7541;SDS011;3812;50.006;8.230;2023-01-29T10:12:21;8.33;;;6.93;;
7541;SDS011;3812;50.006;8.230;2023-01-29T10:14:53;7.40;;;6.47;;
7541;SDS011;3812;50.006;8.230;2023-01-29T10:17:29;7.03;;;6.33;;
7541;SDS011;3812;50.006;8.230;2023-01-29T10:20:02;7.40;;;5.73;;
7541;SDS011;3812;50.006;8.230;2023-01-29T10:22:35;9.07;;;6.57;;
7541;SDS011;3812;50.006;8.230;2023-01-29T10:25:03;7.00;;;6.27;;
7541;SDS011;3812;50.006;8.230;2023-01-29T10:27:33;7.53;;;6.10;;
7541;SDS011;3812;50.006;8.230;2023-01-29T10:30:05;7.43;;;6.23;;
7541;SDS011;3812;50.006;8.230;2023-01-29T10:32:33;14.20;;;9.07;;
7541;SDS011;3812;50.006;8.230;2023-01-29T10:35:03;30.30;;;17.47;;
7541;SDS011;3812;50.006;8.230;2023-01-29T10:37:33;24.57;;;14.97;;
7541;SDS011;3812;50.006;8.230;2023-01-29T10:40:10;10.87;;;8.70;;
7541;SDS011;3812;50.006;8.230;2023-01-29T10:42:45;8.67;;;6.83;;
7541;SDS011;3812;50.006;8.230;2023-01-29T10:45:18;7.40;;;5.63;;
7541;SDS011;3812;50.006;8.230;2023-01-29T10:47:58;7.37;;;5.83;;
7541;SDS011;3812;50.006;8.230;2023-01-29T10:50:38;7.23;;;6.10;;
7541;SDS011;3812;50.006;8.230;2023-01-29T10:56:03;7.83;;;6.20;;
7541;SDS011;3812;50.006;8.230;2023-01-29T10:58:35;8.00;;;6.30;;
7541;SDS011;3812;50.006;8.230;2023-01-29T11:01:06;7.43;;;6.27;;
7541;SDS011;3812;50.006;8.230;2023-01-29T11:03:35;8.83;;;6.63;;
7541;SDS011;3812;50.006;8.230;2023-01-29T11:06:11;6.97;;;6.10;;
7541;SDS011;3812;50.006;8.230;2023-01-29T11:08:42;7.20;;;6.10;;
7541;SDS011;3812;50.006;8.230;2023-01-29T11:11:12;7.67;;;6.37;;
7541;SDS011;3812;50.006;8.230;2023-01-29T11:13:44;9.77;;;6.50;;
7541;SDS011;3812;50.006;8.230;2023-01-29T11:16:14;8.23;;;6.50;;
7541;SDS011;3812;50.006;8.230;2023-01-29T11:18:55;7.03;;;6.33;;
7541;SDS011;3812;50.006;8.230;2023-01-29T11:21:23;7.33;;;6.10;;
7541;SDS011;3812;50.006;8.230;2023-01-29T11:24:03;6.40;;;5.80;;
7541;SDS011;3812;50.006;8.230;2023-01-29T11:26:32;7.40;;;6.40;;
7541;SDS011;3812;50.006;8.230;2023-01-29T11:29:01;7.43;;;5.80;;
7541;SDS011;3812;50.006;8.230;2023-01-29T11:31:34;9.03;;;6.70;;
7541;SDS011;3812;50.006;8.230;2023-01-29T11:34:02;8.33;;;6.33;;
7541;SDS011;3812;50.006;8.230;2023-01-29T11:36:33;7.23;;;6.47;;
7541;SDS011;3812;50.006;8.230;2023-01-29T11:39:09;8.77;;;6.37;;
7541;SDS011;3812;50.006;8.230;2023-01-29T11:41:41;8.77;;;6.90;;
7541;SDS011;3812;50.006;8.230;2023-01-29T11:44:20;7.33;;;6.30;;
7541;SDS011;3812;50.006;8.230;2023-01-29T11:46:48;7.27;;;6.13;;
7541;SDS011;3812;50.006;8.230;2023-01-29T11:49:24;7.53;;;6.10;;
7541;SDS011;3812;50.006;8.230;2023-01-29T11:51:55;7.90;;;6.17;;
7541;SDS011;3812;50.006;8.230;2023-01-29T11:54:24;6.70;;;5.97;;
7541;SDS011;3812;50.006;8.230;2023-01-29T11:56:53;8.10;;;5.93;;
7541;SDS011;3812;50.006;8.230;2023-01-29T11:59:35;7.40;;;6.67;;
7541;SDS011;3812;50.006;8.230;2023-01-29T12:02:04;8.70;;;6.60;;
7541;SDS011;3812;50.006;8.230;2023-01-29T12:04:32;7.53;;;6.67;;
7541;SDS011;3812;50.006;8.230;2023-01-29T12:07:00;6.80;;;6.10;;
7541;SDS011;3812;50.006;8.230;2023-01-29T12:09:27;8.20;;;6.50;;
7541;SDS011;3812;50.006;8.230;2023-01-29T12:11:55;8.27;;;6.23;;
7541;SDS011;3812;50.006;8.230;2023-01-29T12:14:43;7.67;;;6.07;;
7541;SDS011;3812;50.006;8.230;2023-01-29T12:17:11;7.87;;;6.47;;
7541;SDS011;3812;50.006;8.230;2023-01-29T12:19:43;10.97;;;6.70;;
7541;SDS011;3812;50.006;8.230;2023-01-29T12:22:13;9.03;;;6.50;;
7541;SDS011;3812;50.006;8.230;2023-01-29T12:24:42;7.80;;;6.47;;
7541;SDS011;3812;50.006;8.230;2023-01-29T12:27:14;6.73;;;6.03;;
7541;SDS011;3812;50.006;8.230;2023-01-29T12:29:45;7.70;;;6.67;;
7541;SDS011;3812;50.006;8.230;2023-01-29T12:32:18;6.63;;;6.00;;
7541;SDS011;3812;50.006;8.230;2023-01-29T12:34:49;8.27;;;5.97;;
7541;SDS011;3812;50.006;8.230;2023-01-29T12:37:20;6.93;;;6.23;;
7541;SDS011;3812;50.006;8.230;2023-01-29T12:39:49;7.53;;;6.00;;
7541;SDS011;3812;50.006;8.230;2023-01-29T12:42:17;8.93;;;7.80;;
7541;SDS011;3812;50.006;8.230;2023-01-29T12:44:49;7.87;;;6.23;;
7541;SDS011;3812;50.006;8.230;2023-01-29T12:47:18;6.37;;;5.37;;
7541;SDS011;3812;50.006;8.230;2023-01-29T12:49:49;6.60;;;5.90;;
7541;SDS011;3812;50.006;8.230;2023-01-29T12:52:17;6.40;;;5.80;;
7541;SDS011;3812;50.006;8.230;2023-01-29T12:54:48;6.60;;;5.93;;
7541;SDS011;3812;50.006;8.230;2023-01-29T12:57:17;7.20;;;6.47;;
7541;SDS011;3812;50.006;8.230;2023-01-29T12:59:50;6.20;;;5.60;;
7541;SDS011;3812;50.006;8.230;2023-01-29T13:02:22;6.03;;;5.43;;
7541;SDS011;3812;50.006;8.230;2023-01-29T13:04:54;7.37;;;5.63;;
7541;SDS011;3812;50.006;8.230;2023-01-29T13:07:22;5.70;;;5.20;;
7541;SDS011;3812;50.006;8.230;2023-01-29T13:09:51;7.73;;;5.67;;
7541;SDS011;3812;50.006;8.230;2023-01-29T13:12:20;5.77;;;5.20;;
7541;SDS011;3812;50.006;8.230;2023-01-29T13:14:50;6.43;;;5.83;;
7541;SDS011;3812;50.006;8.230;2023-01-29T13:17:22;7.13;;;5.97;;
7541;SDS011;3812;50.006;8.230;2023-01-29T13:19:51;6.57;;;5.87;;
7541;SDS011;3812;50.006;8.230;2023-01-29T13:22:20;6.40;;;5.80;;
7541;SDS011;3812;50.006;8.230;2023-01-29T13:24:48;6.20;;;5.57;;
7541;SDS011;3812;50.006;8.230;2023-01-29T13:27:19;6.03;;;5.43;;
7541;SDS011;3812;50.006;8.230;2023-01-29T13:29:47;7.67;;;5.37;;
7541;SDS011;3812;50.006;8.230;2023-01-29T13:32:20;7.30;;;5.87;;
7541;SDS011;3812;50.006;8.230;2023-01-29T13:34:48;6.63;;;5.97;;
7541;SDS011;3812;50.006;8.230;2023-01-29T13:37:18;6.97;;;5.83;;
7541;SDS011;3812;50.006;8.230;2023-01-29T13:39:47;7.07;;;6.23;;
7541;SDS011;3812;50.006;8.230;2023-01-29T13:42:16;6.13;;;5.30;;
7541;SDS011;3812;50.006;8.230;2023-01-29T13:44:46;6.60;;;6.00;;
7541;SDS011;3812;50.006;8.230;2023-01-29T13:47:21;6.20;;;5.53;;
7541;SDS011;3812;50.006;8.230;2023-01-29T13:49:52;6.30;;;5.70;;
7541;SDS011;3812;50.006;8.230;2023-01-29T13:52:23;7.23;;;6.40;;
7541;SDS011;3812;50.006;8.230;2023-01-29T13:54:53;6.67;;;6.00;;
7541;SDS011;3812;50.006;8.230;2023-01-29T13:57:33;7.00;;;6.30;;
7541;SDS011;3812;50.006;8.230;2023-01-29T14:00:01;6.73;;;6.03;;
7541;SDS011;3812;50.006;8.230;2023-01-29T14:02:31;7.40;;;6.43;;
7541;SDS011;3812;50.006;8.230;2023-01-29T14:07:48;6.00;;;5.40;;
7541;SDS011;3812;50.006;8.230;2023-01-29T14:10:17;6.77;;;5.90;;
7541;SDS011;3812;50.006;8.230;2023-01-29T14:12:48;6.73;;;5.70;;
7541;SDS011;3812;50.006;8.230;2023-01-29T14:15:23;5.80;;;5.30;;
7541;SDS011;3812;50.006;8.230;2023-01-29T14:20:48;5.40;;;4.90;;
7541;SDS011;3812;50.006;8.230;2023-01-29T14:23:21;7.07;;;5.90;;
7541;SDS011;3812;50.006;8.230;2023-01-29T14:25:49;6.00;;;5.40;;
7541;SDS011;3812;50.006;8.230;2023-01-29T14:28:19;6.27;;;5.33;;
7541;SDS011;3812;50.006;8.230;2023-01-29T14:30:47;6.87;;;5.53;;
7541;SDS011;3812;50.006;8.230;2023-01-29T14:33:21;6.23;;;5.63;;
7541;SDS011;3812;50.006;8.230;2023-01-29T14:35:51;7.57;;;5.97;;
7541;SDS011;3812;50.006;8.230;2023-01-29T14:38:20;6.43;;;5.53;;
7541;SDS011;3812;50.006;8.230;2023-01-29T14:40:49;6.93;;;6.07;;
7541;SDS011;3812;50.006;8.230;2023-01-29T14:43:28;6.40;;;5.80;;
7541;SDS011;3812;50.006;8.230;2023-01-29T14:45:55;7.30;;;5.73;;
7541;SDS011;3812;50.006;8.230;2023-01-29T14:48:45;6.63;;;5.97;;
7541;SDS011;3812;50.006;8.230;2023-01-29T14:51:13;7.27;;;5.73;;
7541;SDS011;3812;50.006;8.230;2023-01-29T14:53:43;7.43;;;6.10;;
7541;SDS011;3812;50.006;8.230;2023-01-29T14:56:13;6.03;;;5.40;;
7541;SDS011;3812;50.006;8.230;2023-01-29T14:58:43;6.17;;;5.50;;
7541;SDS011;3812;50.006;8.230;2023-01-29T15:01:14;6.27;;;5.43;;
7541;SDS011;3812;50.006;8.230;2023-01-29T15:03:44;6.40;;;5.73;;
7541;SDS011;3812;50.006;8.230;2023-01-29T15:06:14;6.67;;;5.70;;
7541;SDS011;3812;50.006;8.230;2023-01-29T15:08:43;6.20;;;5.60;;
7541;SDS011;3812;50.006;8.230;2023-01-29T15:11:13;5.70;;;5.20;;
7541;SDS011;3812;50.006;8.230;2023-01-29T15:14:04;6.70;;;5.50;;
7541;SDS011;3812;50.006;8.230;2023-01-29T15:16:39;6.03;;;5.43;;
7541;SDS011;3812;50.006;8.230;2023-01-29T15:19:11;5.70;;;5.07;;
7541;SDS011;3812;50.006;8.230;2023-01-29T15:24:22;6.27;;;5.17;;
7541;SDS011;3812;50.006;8.230;2023-01-29T15:26:49;7.10;;;5.37;;
7541;SDS011;3812;50.006;8.230;2023-01-29T15:29:21;5.87;;;5.33;;
7541;SDS011;3812;50.006;8.230;2023-01-29T15:31:49;6.23;;;5.63;;
7541;SDS011;3812;50.006;8.230;2023-01-29T15:34:16;7.43;;;5.70;;
7541;SDS011;3812;50.006;8.230;2023-01-29T15:36:44;7.27;;;5.57;;
7541;SDS011;3812;50.006;8.230;2023-01-29T15:39:14;9.13;;;5.70;;
7541;SDS011;3812;50.006;8.230;2023-01-29T15:41:41;6.50;;;5.60;;
7541;SDS011;3812;50.006;8.230;2023-01-29T15:44:10;6.33;;;5.40;;
7541;SDS011;3812;50.006;8.230;2023-01-29T15:46:41;7.03;;;6.30;;
7541;SDS011;3812;50.006;8.230;2023-01-29T15:49:13;7.33;;;6.10;;
7541;SDS011;3812;50.006;8.230;2023-01-29T15:51:42;6.80;;;5.57;;